Terminal Aerodrome Forecast
Issued by NWS

Home | Current Version | Previous Version | Text Only | Print | Product List | Glossary On
Versions: 1 2 3 4 5 6 7 8 9 10 11 12 13 14 15 16 17 18 19 20 21 22 23 24 25 26 27 28 29 30 31 32
737
FTUS43 KGRB 240840 AAA
TAFRHI
TAF AMD
KRHI 240840Z 2409/2506 VRB03KT 5SM -DZ BR SCT004 OVC012
      TEMPO 2409/2413 2SM -FZRA BR OVC004
     FM241300 33004KT 2SM -RA BR OVC004
      TEMPO 2415/2417 4SM -SHRA BR OVC007
     FM241700 01006KT P6SM -SHRA OVC007
     FM242000 05007KT P6SM OVC015=

USA.gov is the U.S. government's official web portal to all federal, state and local government web resources and services.